Time;durP1;ratioP1;P1;durP2;ratioP2;P2;SDS_P1;SDS_P2;PMS_P1;PMS_P2;Temp;Humidity;BMP_temperature;BMP_pressure;BME280_temperature;BME280_humidity;BME280_pressure;Samples;Min_cycle;Max_cycle;Signal;HPM_P1;HPM_P2
2022/05/29 00:00:10;;;;;;;4.63;2.53;;;;;;;9.69;57.14;101045.66;682351;29;2037;-79
2022/05/29 00:00:33;;;;;;;4.80;2.40;;;;;;;9.71;57.16;101053.53;687270;28;2030;-79
2022/05/29 00:00:55;;;;;;;5.40;2.58;;;;;;;9.71;57.17;101056.16;684992;28;1678;-79
2022/05/29 00:01:15;;;;;;;4.37;2.70;;;;;;;9.72;56.94;101066.59;682609;29;1237;-79
2022/05/29 00:01:36;;;;;;;3.97;2.67;;;;;;;9.70;57.40;101059.56;684952;28;1123;-79
2022/05/29 00:01:57;;;;;;;6.53;2.72;;;;;;;9.67;57.26;101054.25;685229;28;1731;-79
2022/05/29 00:02:18;;;;;;;9.55;3.50;;;;;;;9.68;57.17;101056.91;684305;28;1330;-79
2022/05/29 00:02:40;;;;;;;8.98;3.17;;;;;;;9.64;57.19;101054.16;685668;28;839;-79
2022/05/29 00:03:00;;;;;;;7.70;3.20;;;;;;;9.66;57.16;101058.59;683062;28;792;-80
2022/05/29 00:03:21;;;;;;;6.23;2.60;;;;;;;9.61;57.38;101044.50;682695;29;1011;-79
2022/05/29 00:03:43;;;;;;;8.50;3.10;;;;;;;9.61;57.42;101049.72;683316;28;1320;-80
2022/05/29 00:04:04;;;;;;;9.50;3.17;;;;;;;9.62;57.46;101050.59;688115;28;1776;-80
2022/05/29 00:04:25;;;;;;;9.20;3.30;;;;;;;9.56;57.17;101046.03;688032;28;990;-79
2022/05/29 00:04:46;;;;;;;8.27;3.20;;;;;;;9.59;57.23;101051.38;688100;28;1902;-79
2022/05/29 00:05:09;;;;;;;7.10;3.00;;;;;;;9.64;57.26;101059.38;687593;28;1390;-79
2022/05/29 00:05:30;;;;;;;5.15;3.00;;;;;;;9.50;57.48;101041.50;679715;29;1939;-79
2022/05/29 00:05:50;;;;;;;5.07;3.00;;;;;;;9.56;57.59;101046.94;683035;28;1109;-79
2022/05/29 00:06:13;;;;;;;6.50;3.00;;;;;;;9.62;57.66;101061.00;683844;28;1366;-80
2022/05/29 00:06:48;;;;;;;6.55;3.00;;;;;;;9.53;57.88;101041.59;685371;28;1197;-80
2022/05/29 00:07:13;;;;;;;6.45;3.05;;;;;;;9.56;57.42;101052.16;679949;29;1520;-80
2022/05/29 00:07:34;;;;;;;5.25;2.90;;;;;;;9.60;57.60;101053.16;680295;29;792;-80
2022/05/29 00:07:56;;;;;;;5.63;2.70;;;;;;;9.52;57.29;101045.03;682626;28;1882;-80
2022/05/29 00:08:28;;;;;;;5.53;2.78;;;;;;;9.48;57.87;101037.06;683377;28;998;-80
2022/05/29 00:08:49;;;;;;;4.07;2.60;;;;;;;9.44;57.74;101036.94;684932;28;1250;-79
2022/05/29 00:09:13;;;;;;;5.72;2.75;;;;;;;9.54;57.74;101058.13;692610;28;1481;-79
2022/05/29 00:09:40;;;;;;;6.72;2.85;;;;;;;9.50;57.94;101051.91;690346;28;1129;-79
2022/05/29 00:10:05;;;;;;;7.68;2.80;;;;;;;9.41;58.12;101043.78;692522;28;1103;-79
2022/05/29 00:10:26;;;;;;;5.25;2.63;;;;;;;9.47;57.90;101057.03;685386;28;1216;-79
2022/05/29 00:10:46;;;;;;;5.32;2.60;;;;;;;9.40;57.86;101044.59;685483;28;803;-79
2022/05/29 00:11:09;;;;;;;5.07;2.50;;;;;;;9.44;58.08;101049.09;687546;28;1465;-79
2022/05/29 00:11:30;;;;;;;8.15;2.70;;;;;;;9.46;58.21;101052.63;687296;28;1260;-79
2022/05/29 00:11:51;;;;;;;9.38;2.90;;;;;;;9.43;58.15;101049.91;690187;28;1334;-80
2022/05/29 00:12:12;;;;;;;9.88;3.17;;;;;;;9.44;57.96;101046.47;688503;28;1208;-80
2022/05/29 00:12:33;;;;;;;7.78;3.20;;;;;;;9.44;58.00;101049.09;686130;28;2035;-79
2022/05/29 00:12:54;;;;;;;6.72;3.13;;;;;;;9.40;57.80;101044.59;681126;28;1257;-79
2022/05/29 00:13:14;;;;;;;5.10;2.87;;;;;;;9.40;57.83;101044.59;685259;28;1151;-80
2022/05/29 00:13:35;;;;;;;5.47;2.90;;;;;;;9.41;58.30;101046.38;690827;28;1216;-79
2022/05/29 00:14:00;;;;;;;5.50;2.90;;;;;;;9.41;58.11;101048.97;691902;28;1488;-79
2022/05/29 00:14:21;;;;;;;6.13;3.10;;;;;;;9.36;58.46;101043.59;689555;28;1342;-79
2022/05/29 00:14:43;;;;;;;6.22;3.40;;;;;;;9.44;58.26;101054.28;682650;29;1162;-79
2022/05/29 00:15:04;;;;;;;7.03;3.30;;;;;;;9.45;58.00;101050.84;687680;28;1367;-79
2022/05/29 00:15:24;;;;;;;5.80;2.88;;;;;;;9.45;58.31;101054.34;690590;28;1198;-79
2022/05/29 00:15:45;;;;;;;5.30;2.65;;;;;;;9.44;57.91;101052.59;690697;28;1235;-79
2022/05/29 00:16:06;;;;;;;5.43;2.80;;;;;;;9.42;58.17;101045.53;687608;28;1678;-79
2022/05/29 00:16:28;;;;;;;5.13;2.70;;;;;;;9.40;58.07;101050.69;687783;28;1501;-79
2022/05/29 00:16:49;;;;;;;4.20;2.80;;;;;;;9.40;58.00;101047.22;687944;28;1053;-79
2022/05/29 00:17:10;;;;;;;3.70;2.70;;;;;;;9.30;58.33;101035.53;685171;28;1029;-79
2022/05/29 00:17:30;;;;;;;5.57;2.72;;;;;;;9.34;58.20;101045.22;686478;28;1004;-79
2022/05/29 00:17:51;;;;;;;6.63;2.72;;;;;;;9.32;58.04;101040.00;684804;28;1399;-79
2022/05/29 00:18:12;;;;;;;7.90;2.73;;;;;;;9.33;58.11;101043.47;685322;28;1120;-79
2022/05/29 00:18:35;;;;;;;7.20;2.60;;;;;;;9.37;58.21;101044.47;690225;28;1312;-79
2022/05/29 00:18:56;;;;;;;8.18;3.00;;;;;;;9.29;58.30;101042.47;685143;28;1388;-79
2022/05/29 00:19:17;;;;;;;6.43;3.30;;;;;;;9.37;58.60;101058.41;682548;29;1575;-79
2022/05/29 00:19:38;;;;;;;7.78;3.22;;;;;;;9.36;58.18;101058.31;682132;29;1435;-80
2022/05/29 00:19:58;;;;;;;7.88;3.38;;;;;;;9.31;58.33;101046.03;682978;28;1089;-80
2022/05/29 00:20:19;;;;;;;8.07;3.20;;;;;;;9.28;58.21;101039.81;682685;28;1431;-79
2022/05/29 00:20:40;;;;;;;5.72;2.97;;;;;;;9.29;58.47;101046.81;682301;29;1053;-79
2022/05/29 00:21:01;;;;;;;4.45;2.78;;;;;;;9.25;58.48;101040.59;682928;28;1069;-79
2022/05/29 00:21:22;;;;;;;4.80;2.80;;;;;;;9.25;58.47;101045.78;685046;28;1424;-79
2022/05/29 00:21:42;;;;;;;5.63;2.97;;;;;;;9.20;58.51;101031.69;688118;28;1154;-80
2022/05/29 00:22:12;;;;;;;6.28;2.90;;;;;;;9.20;58.34;101044.72;689446;28;1453;-79
2022/05/29 00:22:33;;;;;;;5.70;2.92;;;;;;;9.21;58.51;101054.31;682652;29;1217;-80
2022/05/29 00:22:54;;;;;;;6.28;3.03;;;;;;;9.17;58.78;101045.50;684548;28;982;-79
2022/05/29 00:23:14;;;;;;;7.90;3.00;;;;;;;9.16;59.00;101035.03;687349;28;1592;-80
2022/05/29 00:23:41;;;;;;;7.03;2.90;;;;;;;9.17;58.59;101036.81;687953;28;1478;-79
2022/05/29 00:24:01;;;;;;;6.40;2.80;;;;;;;9.16;59.07;101046.31;687567;28;1256;-79
2022/05/29 00:24:22;;;;;;;4.30;2.70;;;;;;;9.15;58.90;101036.75;685479;28;1277;-80
2022/05/29 00:24:45;;;;;;;5.07;2.60;;;;;;;9.17;58.81;101040.28;686256;28;1918;-80
2022/05/29 00:25:08;;;;;;;6.00;2.80;;;;;;;9.16;59.12;101041.13;684770;28;1266;-79
2022/05/29 00:25:29;;;;;;;6.70;2.75;;;;;;;9.14;58.95;101037.56;679638;29;1162;-80
2022/05/29 00:25:52;;;;;;;9.00;3.05;;;;;;;9.14;58.68;101039.28;682606;29;1053;-79
2022/05/29 00:26:13;;;;;;;8.38;2.88;;;;;;;9.17;59.25;101044.63;687512;28;1700;-79
2022/05/29 00:26:34;;;;;;;8.75;3.10;;;;;;;9.23;59.05;101056.97;687681;28;1381;-79
2022/05/29 00:26:54;;;;;;;5.93;3.00;;;;;;;9.23;59.10;101047.47;684433;28;1739;-79
2022/05/29 00:27:16;;;;;;;5.72;3.08;;;;;;;9.19;58.90;101045.56;686408;28;1501;-79
2022/05/29 00:27:37;;;;;;;6.03;3.10;;;;;;;9.13;58.95;101030.59;688128;28;835;-79
2022/05/29 00:27:58;;;;;;;6.10;3.22;;;;;;;9.18;58.68;101041.19;687121;28;1663;-79
2022/05/29 00:28:19;;;;;;;6.68;3.30;;;;;;;9.16;58.89;101042.84;688004;28;1294;-80
2022/05/29 00:28:41;;;;;;;5.20;2.97;;;;;;;9.14;58.96;101039.28;690864;28;875;-79
2022/05/29 00:29:02;;;;;;;5.30;2.80;;;;;;;9.08;58.81;101032.13;687018;28;1677;-79
2022/05/29 00:29:23;;;;;;;4.88;2.88;;;;;;;9.11;59.16;101039.16;685645;28;1391;-79
2022/05/29 00:29:45;;;;;;;4.70;2.85;;;;;;;9.09;59.27;101033.03;681848;29;1001;-79
2022/05/29 00:30:10;;;;;;;3.53;2.88;;;;;;;9.12;58.82;101048.75;684422;28;1679;-79
2022/05/29 00:30:31;;;;;;;3.50;3.03;;;;;;;9.11;59.31;101039.16;685999;28;1065;-79
2022/05/29 00:30:52;;;;;;;4.10;2.92;;;;;;;9.10;59.23;101040.00;687806;28;1698;-79
2022/05/29 00:31:13;;;;;;;5.82;2.92;;;;;;;9.05;59.30;101038.09;687162;28;985;-80
2022/05/29 00:31:35;;;;;;;8.55;3.05;;;;;;;9.05;59.32;101035.50;688056;28;820;-80
2022/05/29 00:31:55;;;;;;;10.00;3.53;;;;;;;9.01;59.45;101036.22;686246;28;1686;-79
2022/05/29 00:32:16;;;;;;;11.75;3.63;;;;;;;9.00;59.02;101029.25;689897;28;1639;-79
2022/05/29 00:32:37;;;;;;;10.10;3.53;;;;;;;9.06;59.41;101044.19;685325;28;888;-79
2022/05/29 00:32:57;;;;;;;6.77;2.90;;;;;;;9.01;59.61;101033.63;687654;28;1335;-79
2022/05/29 00:33:18;;;;;;;4.43;2.80;;;;;;;9.03;59.20;101036.28;690124;28;1305;-79
2022/05/29 00:33:40;;;;;;;3.13;2.60;;;;;;;9.04;59.45;101035.47;685702;28;932;-79
2022/05/29 00:34:01;;;;;;;3.00;2.70;;;;;;;9.02;59.34;101037.09;688808;28;1693;-79
2022/05/29 00:34:22;;;;;;;3.25;2.70;;;;;;;9.04;59.42;101038.94;690645;28;1809;-80
2022/05/29 00:34:42;;;;;;;5.50;2.90;;;;;;;9.05;59.77;101045.91;688009;28;847;-79
2022/05/29 00:35:03;;;;;;;6.68;2.97;;;;;;;9.00;59.39;101029.25;685491;28;1718;-79
2022/05/29 00:35:24;;;;;;;7.20;2.90;;;;;;;8.99;59.24;101030.06;679290;29;1115;-79
2022/05/29 00:35:45;;;;;;;6.95;2.70;;;;;;;9.02;59.85;101026.69;682783;29;748;-79
2022/05/29 00:36:08;;;;;;;6.70;2.70;;;;;;;9.01;59.47;101033.63;686110;28;1367;-79
2022/05/29 00:36:35;;;;;;;6.63;2.83;;;;;;;8.97;59.45;101023.91;684849;28;1094;-79
2022/05/29 00:36:58;;;;;;;9.48;3.60;;;;;;;9.02;59.72;101034.47;687551;28;1430;-79
2022/05/29 00:37:19;;;;;;;8.55;3.60;;;;;;;9.01;59.73;101030.09;690555;28;1118;-79
2022/05/29 00:37:41;;;;;;;7.22;3.05;;;;;;;9.09;59.22;101048.66;688237;28;1768;-80
2022/05/29 00:38:03;;;;;;;7.38;2.95;;;;;;;9.01;59.42;101033.63;686909;28;1669;-79
2022/05/29 00:38:24;;;;;;;5.22;2.75;;;;;;;9.01;59.52;101037.91;682267;29;962;-79
2022/05/29 00:38:46;;;;;;;5.13;2.78;;;;;;;9.04;59.78;101038.06;685446;28;854;-79
2022/05/29 00:39:09;;;;;;;6.13;3.00;;;;;;;9.01;59.84;101036.22;690273;28;1763;-79
2022/05/29 00:39:29;;;;;;;6.82;3.40;;;;;;;9.00;59.60;101034.44;687566;28;997;-79
2022/05/29 00:39:53;;;;;;;5.30;3.53;;;;;;;9.03;59.78;101044.97;690326;28;1381;-79
2022/05/29 00:40:37;;;;;;;4.60;3.33;;;;;;;8.99;59.99;101043.09;687339;28;1609;-79
2022/05/29 00:41:25;;;;;;;5.75;3.00;;;;;;;8.98;60.14;101045.63;682257;29;1038;-79
2022/05/29 00:41:46;;;;;;;7.38;3.20;;;;;;;8.96;60.19;101045.56;683723;28;1206;-79
2022/05/29 00:42:10;;;;;;;5.38;3.10;;;;;;;8.95;60.28;101046.38;688062;28;1144;-80
2022/05/29 00:42:31;;;;;;;5.05;3.38;;;;;;;8.92;60.01;101030.66;693365;28;885;-79
2022/05/29 00:42:51;;;;;;;6.38;3.40;;;;;;;8.93;59.76;101050.66;691783;28;1332;-79
2022/05/29 00:43:12;;;;;;;8.38;3.50;;;;;;;8.86;59.82;101031.28;687102;28;1469;-79
2022/05/29 00:43:33;;;;;;;8.27;3.50;;;;;;;8.88;60.11;101031.34;684516;28;760;-79
2022/05/29 00:44:12;;;;;;;8.15;3.30;;;;;;;8.94;60.22;101034.19;685232;28;1295;-79
2022/05/29 00:44:33;;;;;;;6.75;2.80;;;;;;;8.91;60.14;101040.16;688024;28;1962;-79
2022/05/29 00:44:54;;;;;;;6.25;2.90;;;;;;;8.87;59.54;101026.97;687865;28;1305;-79
2022/05/29 00:45:21;;;;;;;6.17;3.00;;;;;;;8.88;59.91;101032.25;684375;28;1664;-80
2022/05/29 00:45:55;;;;;;;5.05;3.00;;;;;;;8.85;59.69;101028.63;685295;28;1373;-79
2022/05/29 00:46:16;;;;;;;5.00;3.00;;;;;;;8.89;59.94;101027.91;686158;28;1229;-80
2022/05/29 00:46:37;;;;;;;6.32;2.90;;;;;;;8.92;60.11;101035.88;690797;28;822;-79
2022/05/29 00:47:13;;;;;;;6.87;2.93;;;;;;;8.87;59.61;101033.09;690236;28;1674;-79
2022/05/29 00:47:34;;;;;;;7.65;3.25;;;;;;;8.83;59.93;101030.31;680010;29;1051;-79
2022/05/29 00:47:54;;;;;;;10.07;3.60;;;;;;;8.83;60.21;101027.69;683073;28;1313;-79
2022/05/29 00:48:18;;;;;;;8.77;3.33;;;;;;;8.90;60.18;101037.50;683332;28;1493;-78
2022/05/29 00:48:39;;;;;;;8.13;3.13;;;;;;;8.85;60.12;101028.63;688036;28;1000;-79
2022/05/29 00:49:04;;;;;;;8.00;3.15;;;;;;;8.92;59.73;101041.06;687518;28;1461;-80
2022/05/29 00:49:28;;;;;;;10.27;3.00;;;;;;;8.86;60.06;101025.22;684808;28;988;-80
2022/05/29 00:49:50;;;;;;;7.70;3.10;;;;;;;8.89;60.08;101030.53;684597;28;974;-79
2022/05/29 00:50:11;;;;;;;5.80;2.95;;;;;;;8.81;59.57;101016.31;686953;28;1545;-79
2022/05/29 00:50:32;;;;;;;4.70;3.00;;;;;;;8.86;60.08;101028.69;687999;28;916;-79
2022/05/29 00:50:57;;;;;;;6.33;3.13;;;;;;;8.92;59.91;101041.06;685172;28;1196;-79
2022/05/29 00:51:22;;;;;;;6.93;3.00;;;;;;;8.85;59.86;101018.22;683644;28;1449;-80
2022/05/29 00:51:48;;;;;;;6.47;3.20;;;;;;;8.82;60.21;101018.09;685122;28;1451;-80
2022/05/29 00:52:16;;;;;;;7.25;3.15;;;;;;;8.86;60.45;101025.22;686379;28;1122;-80
2022/05/29 00:52:38;;;;;;;9.95;3.58;;;;;;;8.93;60.10;101035.03;682589;29;1242;-80
2022/05/29 00:52:58;;;;;;;9.30;3.30;;;;;;;8.92;60.08;101025.47;682675;28;1435;-80
2022/05/29 00:53:20;;;;;;;4.77;3.17;;;;;;;8.98;59.99;101035.22;687557;28;1123;-79
2022/05/29 00:53:41;;;;;;;4.80;3.17;;;;;;;8.88;59.41;101014.03;685289;28;1225;-79
2022/05/29 00:54:02;;;;;;;5.88;3.20;;;;;;;8.96;59.99;101031.66;687667;28;1299;-80
2022/05/29 00:54:23;;;;;;;7.05;3.17;;;;;;;8.90;59.79;101021.88;685053;28;1074;-80
2022/05/29 00:54:56;;;;;;;7.25;3.03;;;;;;;8.99;59.94;101032.69;687928;28;1411;-79
2022/05/29 00:55:21;;;;;;;6.15;3.35;;;;;;;8.89;59.67;101025.31;685179;28;1054;-79
2022/05/29 00:55:49;;;;;;;5.00;3.20;;;;;;;8.91;59.91;101026.28;685269;28;1229;-80
2022/05/29 00:56:12;;;;;;;5.07;2.92;;;;;;;8.91;60.12;101023.69;686580;28;1138;-80
2022/05/29 00:56:38;;;;;;;7.45;3.00;;;;;;;8.87;59.80;101013.97;688053;28;904;-79
2022/05/29 00:56:59;;;;;;;6.28;2.90;;;;;;;8.95;59.82;101032.50;687471;28;1865;-80
2022/05/29 00:57:33;;;;;;;5.20;2.85;;;;;;;8.95;59.57;101029.91;682647;29;1050;-80
2022/05/29 00:58:00;;;;;;;5.50;2.75;;;;;;;8.97;60.01;101036.91;688172;28;1701;-79
2022/05/29 00:58:23;;;;;;;6.88;3.00;;;;;;;8.97;59.91;101034.31;686009;28;1110;-79
2022/05/29 00:58:44;;;;;;;7.90;3.10;;;;;;;8.92;60.03;101025.47;692295;28;945;-79
2022/05/29 00:59:12;;;;;;;7.40;3.20;;;;;;;8.91;60.11;101024.56;690147;28;1786;-79
2022/05/29 00:59:33;;;;;;;7.63;3.40;;;;;;;8.90;60.25;101021.88;687559;28;827;-79
2022/05/29 00:59:58;;;;;;;6.97;3.20;;;;;;;8.85;59.62;101011.28;684798;28;1691;-79
2022/05/29 01:00:25;;;;;;;7.13;3.10;;;;;;;8.90;59.93;101021.88;687725;28;1232;-80
2022/05/29 01:00:47;;;;;;;6.82;3.30;;;;;;;8.90;59.99;101022.78;685479;28;871;-80
2022/05/29 01:01:09;;;;;;;6.63;3.30;;;;;;;8.90;59.47;101022.78;685185;28;1107;-80
2022/05/29 01:01:29;;;;;;;5.20;3.10;;;;;;;8.85;59.66;101013.91;687899;28;1103;-80
2022/05/29 01:01:51;;;;;;;5.10;2.70;;;;;;;8.86;59.53;101022.59;690828;28;1286;-80
2022/05/29 01:02:12;;;;;;;6.80;2.95;;;;;;;8.88;59.96;101023.53;684981;28;2255;-80
2022/05/29 01:02:33;;;;;;;7.28;3.40;;;;;;;8.88;59.99;101018.34;683305;28;1690;-79
2022/05/29 01:02:55;;;;;;;9.02;3.55;;;;;;;8.93;60.03;101032.44;679642;29;1825;-79
2022/05/29 01:03:16;;;;;;;9.90;3.63;;;;;;;8.82;59.95;101018.09;685170;28;1162;-79
2022/05/29 01:03:37;;;;;;;8.75;3.03;;;;;;;8.84;59.95;101016.47;685168;28;906;-79
2022/05/29 01:03:58;;;;;;;7.15;3.10;;;;;;;8.83;59.82;101017.28;690171;28;1786;-80
2022/05/29 01:04:25;;;;;;;7.07;3.00;;;;;;;8.82;59.76;101010.28;687916;28;969;-80
2022/05/29 01:04:45;;;;;;;6.78;3.35;;;;;;;8.85;59.56;101019.09;682709;28;1915;-80
2022/05/29 01:05:09;;;;;;;7.80;3.40;;;;;;;8.88;59.81;101028.75;684649;28;1432;-79
2022/05/29 01:05:32;;;;;;;8.20;3.65;;;;;;;8.81;60.03;101016.31;689498;28;1356;-80
2022/05/29 01:05:53;;;;;;;9.07;3.80;;;;;;;8.79;60.28;101018.00;685718;28;1363;-79
2022/05/29 01:06:14;;;;;;;7.75;3.70;;;;;;;8.79;59.98;101012.78;685001;28;1153;-79
2022/05/29 01:06:34;;;;;;;5.75;3.20;;;;;;;8.77;59.80;101016.22;684517;28;1612;-80
2022/05/29 01:06:55;;;;;;;4.55;3.00;;;;;;;8.82;60.27;101023.28;679692;29;1316;-79
2022/05/29 01:07:18;;;;;;;3.57;2.80;;;;;;;8.77;59.98;101021.41;682437;29;1147;-79
2022/05/29 01:07:41;;;;;;;4.82;3.00;;;;;;;8.82;60.14;101023.28;684194;28;1302;-79
2022/05/29 01:08:10;;;;;;;7.18;3.03;;;;;;;8.74;60.42;101004.78;686861;28;1779;-79
2022/05/29 01:08:36;;;;;;;8.73;3.33;;;;;;;8.72;60.40;101011.66;693280;28;1383;-79
2022/05/29 01:08:59;;;;;;;7.55;3.00;;;;;;;8.74;60.59;101021.28;689904;28;1743;-80
2022/05/29 01:09:19;;;;;;;5.38;2.75;;;;;;;8.72;60.15;101016.88;687455;28;2803;-79
2022/05/29 01:09:43;;;;;;;5.60;3.13;;;;;;;8.70;60.16;101011.59;689759;28;1213;-79
2022/05/29 01:10:06;;;;;;;5.75;3.20;;;;;;;8.76;60.25;101021.34;681953;29;2350;-79
2022/05/29 01:10:52;;;;;;;6.25;3.03;;;;;;;8.75;60.88;101025.69;690004;28;949;-79
2022/05/29 01:11:30;;;;;;;5.78;2.80;;;;;;;8.71;59.94;101009.84;676516;29;2793;-80
2022/05/29 01:12:00;;;;;;;5.25;3.00;;;;;;;8.75;60.47;101028.28;673818;29;1038;-79
2022/05/29 01:12:54;;;;;;;5.60;2.75;;;;;;;8.75;60.34;101028.28;687190;28;1173;-80
2022/05/29 01:13:27;;;;;;;7.25;3.10;;;;;;;8.79;60.47;101023.19;685434;28;1111;-80
2022/05/29 01:14:09;;;;;;;5.13;2.90;;;;;;;8.83;60.84;101025.09;687919;28;1127;-80
2022/05/29 01:14:48;;;;;;;6.00;3.00;;;;;;;8.85;60.22;101020.84;685813;28;1128;-79
2022/05/29 01:15:24;;;;;;;4.72;2.95;;;;;;;8.90;60.83;101021.88;684922;28;1029;-79
2022/05/29 01:16:04;;;;;;;6.55;3.00;;;;;;;8.93;60.00;101022.03;685149;28;1040;-80
2022/05/29 01:16:32;;;;;;;6.88;2.95;;;;;;;8.91;60.25;101008.94;690582;28;981;-79
2022/05/29 01:17:26;;;;;;;8.20;3.40;;;;;;;9.01;60.44;101019.69;686533;28;1041;-79
2022/05/29 01:18:07;;;;;;;6.18;3.47;;;;;;;8.97;60.15;101008.28;687829;28;842;-79
2022/05/29 01:18:55;;;;;;;6.45;3.50;;;;;;;9.04;60.37;101010.28;684865;28;943;-80
2022/05/29 01:19:19;;;;;;;6.50;3.10;;;;;;;9.15;60.14;101025.47;687633;28;1026;-79
2022/05/29 01:20:02;;;;;;;4.88;2.80;;;;;;;9.15;59.97;101020.25;682773;28;1466;-79
2022/05/29 01:20:23;;;;;;;4.55;3.10;;;;;;;9.18;59.61;101013.44;684722;28;1302;-79
2022/05/29 01:21:09;;;;;;;5.78;3.20;;;;;;;9.20;60.07;101023.88;687882;28;1190;-80
2022/05/29 01:21:55;;;;;;;6.30;2.90;;;;;;;9.21;59.52;101023.06;688403;28;1755;-79
2022/05/29 01:22:39;;;;;;;4.63;3.00;;;;;;;9.19;59.87;101022.13;692723;28;1618;-81
2022/05/29 01:23:02;;;;;;;6.32;2.90;;;;;;;9.22;59.66;101023.97;692896;28;1237;-80
2022/05/29 01:23:29;;;;;;;6.07;3.08;;;;;;;9.18;59.69;101015.16;686670;28;1581;-79
2022/05/29 01:24:20;;;;;;;6.55;3.40;;;;;;;9.19;59.41;101003.91;682453;28;1001;-79
2022/05/29 01:25:11;;;;;;;6.65;3.00;;;;;;;9.24;59.55;101017.09;679868;29;1970;-80
2022/05/29 01:25:43;;;;;;;9.18;3.20;;;;;;;9.24;59.65;101017.97;684873;28;1077;-79
2022/05/29 01:26:40;;;;;;;10.18;3.30;;;;;;;9.22;59.68;101016.16;687457;28;1106;-79
2022/05/29 01:27:38;;;;;;;9.80;3.20;;;;;;;9.16;59.20;101011.59;689595;28;1702;-80
2022/05/29 01:28:31;;;;;;;4.85;3.00;;;;;;;9.11;59.28;101015.75;691630;28;1396;-80
2022/05/29 01:29:01;;;;;;;5.47;2.60;;;;;;;9.08;59.60;101008.69;690394;28;1068;-80
2022/05/29 01:29:29;;;;;;;4.65;2.78;;;;;;;8.97;59.71;100997.88;685763;28;1096;-79
2022/05/29 01:30:13;;;;;;;5.22;2.80;;;;;;;8.92;59.63;100999.44;686452;28;1040;-80
2022/05/29 01:30:41;;;;;;;8.10;2.90;;;;;;;8.97;59.84;101007.41;683741;28;1713;-79
2022/05/29 01:31:20;;;;;;;4.90;2.95;;;;;;;9.01;59.68;101010.19;683179;28;1260;-80
2022/05/29 01:31:52;;;;;;;4.55;2.80;;;;;;;9.03;59.89;101007.66;689272;28;772;-80
2022/05/29 01:32:17;;;;;;;4.00;3.00;;;;;;;9.04;59.92;101012.03;687309;28;1433;-80
2022/05/29 01:32:43;;;;;;;4.55;3.20;;;;;;;9.05;59.39;101009.47;685103;28;1183;-80
2022/05/29 01:33:13;;;;;;;4.35;3.03;;;;;;;9.03;59.72;101005.06;686050;28;1494;-79
2022/05/29 01:34:08;;;;;;;4.95;2.92;;;;;;;9.02;59.77;101011.97;685130;28;1374;-80
2022/05/29 01:34:39;;;;;;;9.15;3.20;;;;;;;8.94;59.90;100997.75;676410;29;1599;-80
2022/05/29 01:35:09;;;;;;;11.25;3.47;;;;;;;8.96;59.59;100996.09;684359;28;1707;-79
2022/05/29 01:35:52;;;;;;;7.95;3.30;;;;;;;8.91;60.01;100993.31;686840;28;1673;-79
2022/05/29 01:36:26;;;;;;;7.22;3.08;;;;;;;8.96;59.64;101001.31;684447;28;1495;-79
2022/05/29 01:37:13;;;;;;;7.85;3.17;;;;;;;9.00;59.82;101008.41;687739;28;1024;-79
2022/05/29 01:38:16;;;;;;;7.63;3.20;;;;;;;8.88;59.92;100995.81;686038;28;1059;-79
2022/05/29 01:38:51;;;;;;;4.25;3.10;;;;;;;8.89;59.98;100994.09;684663;28;1429;-79
2022/05/29 01:39:34;;;;;;;6.43;3.30;;;;;;;8.90;59.91;100990.66;682296;29;1098;-79
2022/05/29 01:40:01;;;;;;;7.60;3.35;;;;;;;8.96;60.19;100996.09;685609;28;1273;-80
2022/05/29 01:41:00;;;;;;;6.63;3.05;;;;;;;8.94;60.19;100991.66;684609;28;1142;-79
2022/05/29 01:41:58;;;;;;;7.88;2.75;;;;;;;8.95;59.90;100994.31;687635;28;1446;-79
2022/05/29 01:42:43;;;;;;;6.25;2.90;;;;;;;8.92;60.27;100994.22;689051;28;1048;-79
2022/05/29 01:43:30;;;;;;;7.72;3.00;;;;;;;8.82;59.95;100985.16;687273;28;1298;-80
2022/05/29 01:43:58;;;;;;;4.35;3.30;;;;;;;8.89;59.97;100999.28;688258;28;1480;-79
2022/05/29 01:44:40;;;;;;;3.80;2.80;;;;;;;8.89;60.16;101004.50;685500;28;2116;-80
2022/05/29 01:45:19;;;;;;;6.90;3.15;;;;;;;8.87;59.71;100998.34;678325;29;1368;-79
2022/05/29 01:45:55;;;;;;;8.77;3.50;;;;;;;8.89;59.82;100997.59;685071;28;1151;-79
2022/05/29 01:46:34;;;;;;;6.38;3.15;;;;;;;8.88;59.93;100992.31;686933;28;1121;-79
2022/05/29 01:47:04;;;;;;;5.65;3.10;;;;;;;8.80;60.04;100983.31;689213;28;1719;-79
2022/05/29 01:47:42;;;;;;;8.43;3.25;;;;;;;8.76;60.20;100982.31;688253;28;1187;-79
2022/05/29 01:48:15;;;;;;;7.03;3.13;;;;;;;8.86;60.11;100993.97;689331;28;1476;-80
2022/05/29 01:48:38;;;;;;;8.55;3.00;;;;;;;8.84;60.30;100995.63;693193;28;866;-80
2022/05/29 01:49:17;;;;;;;9.15;3.17;;;;;;;8.82;60.04;100992.06;688276;28;1658;-80
2022/05/29 01:49:44;;;;;;;7.00;3.50;;;;;;;8.77;60.23;100989.28;687300;28;864;-80
2022/05/29 01:50:11;;;;;;;5.30;3.25;;;;;;;8.71;60.26;100981.25;685045;28;2022;-80
2022/05/29 01:50:40;;;;;;;6.05;3.33;;;;;;;8.66;60.53;100975.84;687329;28;1070;-80
2022/05/29 01:51:13;;;;;;;7.13;3.40;;;;;;;8.68;60.23;100982.03;688636;28;1151;-80
2022/05/29 01:51:59;;;;;;;5.90;3.15;;;;;;;8.70;60.46;100980.38;687063;28;951;-80
2022/05/29 01:52:27;;;;;;;6.18;3.35;;;;;;;8.74;60.57;100983.97;685904;28;1305;-79
2022/05/29 01:52:59;;;;;;;8.05;3.47;;;;;;;8.71;60.75;100984.75;687869;28;909;-80
2022/05/29 01:53:25;;;;;;;7.75;3.58;;;;;;;8.69;60.41;100978.59;687107;28;1081;-79
2022/05/29 01:53:59;;;;;;;6.32;3.15;;;;;;;8.68;60.47;100978.53;685020;28;867;-79
2022/05/29 01:54:36;;;;;;;8.90;3.05;;;;;;;8.72;60.58;100986.50;680057;28;1562;-79
2022/05/29 01:55:19;;;;;;;9.85;3.00;;;;;;;8.72;60.45;100976.09;682157;29;1214;-80
2022/05/29 01:55:45;;;;;;;7.43;2.95;;;;;;;8.62;60.17;100974.84;687306;28;933;-80
2022/05/29 01:56:21;;;;;;;7.28;3.08;;;;;;;8.57;60.39;100967.66;687914;28;1503;-79
2022/05/29 01:56:55;;;;;;;6.57;2.97;;;;;;;8.65;61.09;100984.50;684970;28;947;-79
2022/05/29 01:57:21;;;;;;;7.53;3.60;;;;;;;8.61;60.43;100972.19;687292;28;1079;-80
2022/05/29 01:57:47;;;;;;;8.13;3.50;;;;;;;8.68;60.79;100987.22;690477;28;1185;-79
2022/05/29 01:58:14;;;;;;;6.88;3.80;;;;;;;8.64;60.48;100972.31;684664;28;1418;-79
2022/05/29 01:58:39;;;;;;;7.15;3.70;;;;;;;8.65;60.57;100975.81;682507;28;1546;-79
2022/05/29 01:59:23;;;;;;;8.90;3.70;;;;;;;8.57;60.51;100965.97;685947;28;1320;-80
2022/05/29 01:59:52;;;;;;;5.78;3.40;;;;;;;8.69;60.61;100986.41;686945;28;1657;-79
2022/05/29 02:00:19;;;;;;;6.90;3.40;;;;;;;8.65;60.74;100974.09;690243;28;1023;-79
2022/05/29 02:00:40;;;;;;;6.95;3.05;;;;;;;8.65;60.89;100978.41;687761;28;1699;-79
2022/05/29 02:01:04;;;;;;;8.30;3.00;;;;;;;8.65;60.65;100983.63;682145;28;1261;-79
2022/05/29 02:01:39;;;;;;;6.00;3.20;;;;;;;8.61;60.73;100966.97;682384;29;1009;-79
2022/05/29 02:02:06;;;;;;;8.13;3.33;;;;;;;8.59;60.93;100969.50;685043;28;1349;-79
2022/05/29 02:02:34;;;;;;;9.85;3.30;;;;;;;8.58;60.81;100978.13;685417;28;1323;-79
2022/05/29 02:03:15;;;;;;;8.80;3.20;;;;;;;8.62;60.72;100981.78;689428;28;1289;-79
2022/05/29 02:03:45;;;;;;;5.35;3.25;;;;;;;8.59;60.59;100987.72;689989;28;2124;-79
2022/05/29 02:04:08;;;;;;;5.80;3.33;;;;;;;8.49;61.17;100970.84;692768;28;1761;-80
2022/05/29 02:04:33;;;;;;;7.45;3.25;;;;;;;8.50;60.88;100977.81;690476;28;968;-80
2022/05/29 02:04:59;;;;;;;6.63;3.45;;;;;;;8.56;60.73;100978.91;687731;28;1053;-80
2022/05/29 02:05:27;;;;;;;5.22;3.40;;;;;;;8.49;60.89;100968.25;687309;28;1618;-79
2022/05/29 02:05:58;;;;;;;5.55;3.30;;;;;;;8.54;61.00;100981.44;685189;28;906;-80
2022/05/29 02:06:27;;;;;;;5.90;3.00;;;;;;;8.53;61.22;100989.19;681525;29;1543;-79
2022/05/29 02:07:47;;;;;;;5.32;3.45;;;;;;;8.54;61.35;100981.44;686696;28;1747;-79
2022/05/29 02:08:30;;;;;;;10.68;3.60;;;;;;;8.59;60.95;100981.63;686125;28;1410;-80
2022/05/29 02:09:03;;;;;;;4.03;3.00;;;;;;;8.57;60.99;100983.28;690501;28;867;-79
2022/05/29 02:09:30;;;;;;;4.63;3.25;;;;;;;8.55;61.14;100982.34;689042;28;958;-79
2022/05/29 02:10:00;;;;;;;5.40;3.20;;;;;;;8.55;60.85;100983.22;684749;28;1262;-79
2022/05/29 02:10:32;;;;;;;5.57;2.90;;;;;;;8.51;60.93;100970.91;682411;28;1024;-80
2022/05/29 02:11:06;;;;;;;7.00;3.10;;;;;;;8.49;60.89;100970.84;682760;28;1077;-79
2022/05/29 02:11:28;;;;;;;9.60;3.63;;;;;;;8.49;61.24;100972.56;682648;28;1553;-80
2022/05/29 02:11:54;;;;;;;7.72;3.45;;;;;;;8.49;61.20;100977.78;687010;28;1364;-81
2022/05/29 02:12:19;;;;;;;10.32;3.80;;;;;;;8.49;61.12;100978.66;687086;28;1549;-81
2022/05/29 02:12:49;;;;;;;9.00;3.47;;;;;;;8.41;61.16;100954.06;687703;28;1345;-80